x

Destruction Island, Wa (desw1) Weather Station

11:00 - Fri 17th Apr 2015 All times are PDT. -7 hours from GMT.

  • Wind
    15mph, 17mph gusts
  • Luft Temp 50°f
  • Sea Pressure 1027.4mb
  • Destruction Island, Wa
  • Destruction Island, Wa

More Historic Weather Station data

Upgrade to MSW Pro to gain access to the past 30 days of data for over 8000 Wavebouys and Weather Stations around the globe.

Join Pro

Comparision Forecast

View Surf forecast
   
Fr 04/17 11:00 15 17 mph 1027.4mb 50f
10:00 17 18 mph 1027.2mb 50f
9:00 23 24 mph 1026.5mb 50f
8:00 21 24 mph 1026mb 51f
7:00 28 30 mph 1025.7mb 51f
6:00 24 28 mph 1025.7mb 52f
5:00 28 31 mph 1025.8mb 52f
4:00 25 28 mph 1026.4mb 52f
3:00 29 32 mph 1026.6mb 52f
2:00 30 32 mph 1026.4mb 53f
1:00 25 29 mph 1026.1mb 53f
12:00 22 24 mph 1026mb 53f
11:00 22 24 mph 1026.1mb 52f
10:00 18 20 mph 1025.6mb 51f
9:00 16 20 mph 1025.3mb 50f
8:00 9 10 mph 1024.6mb 50f
7:00 9 10 mph 1024.4mb 50f
6:00 16 17 mph 1024.6mb 50f
5:00 18 20 mph 1025mb 49f
4:00 17 18 mph 1024.8mb 49f
3:00 20 21 mph 1024.3mb 49f
2:00 15 16 mph 1024.3mb 49f
1:00 16
mph
1024.2mb 50f
12:00 18
mph
1024.4mb 50f
Do 04/16 11:00 17
mph
1024.2mb 51f
10:00 18 21 mph 1024mb 51f
9:00 25 28 mph 1023.5mb 51f
8:00 26 30 mph 1023.4mb 52f
7:00 26 29 mph 1023.6mb 52f
6:00 30 31 mph 1024.2mb 52f
5:00 26 30 mph 1025.1mb 53f
4:00 26 30 mph 1025.7mb 53f
3:00 24 25 mph 1026.4mb 53f
2:00 22 24 mph 1027mb 53f
1:00 21 24 mph 1027.5mb 53f
12:00 20 23 mph 1028.2mb 52f
11:00 11 13 mph 1028.8mb 51f
10:00 5 6 mph 1029.1mb 50f
9:00 7
mph
1029.4mb 48f
8:00 10 14 mph 1029.9mb 46f
7:00 10 11 mph 1030mb 44f
6:00 11
mph
1030.1mb 43f
5:00 8 9 mph 1030.5mb 43f
4:00 9
mph
1030.7mb 43f
3:00 10 13 mph 1031.1mb 44f
2:00 13 14 mph 1031.4mb 44f
1:00 7 8 mph 1031.8mb 45f
12:00 8 10 mph 1032.1mb 46f
Mi 04/15 11:00 7
mph
1032.6mb 48f
10:00 6 7 mph 1032.8mb 49f
9:00 7 8 mph 1032.7mb 50f
8:00 9 10 mph 1032.6mb 50f
7:00 9 10 mph 1032.9mb 51f
6:00 7 9 mph 1033.2mb 52f
5:00 10 11 mph 1033.5mb 51f
4:00 9 10 mph 1033.9mb 52f
3:00 9 11 mph 1034.3mb 52f
2:00 10 11 mph 1034.5mb 52f
1:00 7 9 mph 1034.7mb 52f
12:00 8 9 mph 1034.9mb 50f
11:00 7 9 mph 1034.8mb 49f
10:00 5 6 mph 1034.5mb 49f
9:00 5 6 mph 1034.4mb 46f
8:00 8
mph
1034mb 43f
7:00 8 9 mph 1033.4mb 42f
6:00 8 9 mph 1033.1mb 41f
5:00 9 10 mph 1032.8mb 41f
4:00 10 11 mph 1032.5mb 41f
3:00 10 11 mph 1032.1mb 42f
2:00 9 10 mph 1032.3mb 42f
1:00 8 9 mph 1032mb 43f
12:00 11 13 mph 1031.9mb 43f
Di 04/14 11:00 8 11 mph 1031.6mb 46f
10:00 15 16 mph 1031.2mb 48f
9:00 24 28 mph 1030.5mb 47f
8:00 18 20 mph 1030mb 48f
7:00 17 20 mph 1029.8mb 49f
6:00 17 22 mph 1029.6mb 49f
5:00 20 22 mph 1029.3mb 49f
4:00 16 18 mph 1028.9mb 50f
3:00 15 18 mph 1028.6mb 49f
2:00 7 8 mph 1027.9mb 49f
1:00 7 8 mph 1027.6mb 48f
12:00 9 14 mph 1026.9mb 48f
11:00 25 29 mph 1025.9mb 47f
10:00 6 7 mph 1025.3mb 46f
9:00 6 7 mph 1024.7mb 44f
8:00 3 5 mph 1023.8mb 42f